createdAt,value
2017-12-09T00:00:34.033Z,1002.37
2017-12-09T00:01:34.450Z,1002.31
2017-12-09T00:02:34.870Z,1002.31
2017-12-09T00:03:56.443Z,1002.34
2017-12-09T00:04:35.707Z,1002.38
2017-12-09T00:05:36.140Z,1002.35
2017-12-09T00:06:36.570Z,1002.30
2017-12-09T00:07:36.968Z,1002.26
2017-12-09T00:08:37.380Z,1002.23
2017-12-09T00:09:58.969Z,1002.26
2017-12-09T00:10:38.234Z,1002.22
2017-12-09T00:11:38.649Z,1002.17
2017-12-09T00:12:39.065Z,1002.20
2017-12-09T00:13:39.481Z,1002.16
2017-12-09T00:14:39.893Z,1002.17
2017-12-09T00:16:01.475Z,1002.13
2017-12-09T00:16:40.735Z,1002.09
2017-12-09T00:17:41.151Z,1002.17
2017-12-09T00:18:41.586Z,1002.15
2017-12-09T00:19:42.000Z,1002.13
2017-12-09T00:20:42.408Z,1002.15
2017-12-09T00:22:03.982Z,1002.17
2017-12-09T00:22:43.258Z,1002.12
2017-12-09T00:23:43.670Z,1002.13
2017-12-09T00:24:44.089Z,1002.19
2017-12-09T00:25:44.523Z,1002.17
2017-12-09T00:26:44.936Z,1002.20
2017-12-09T00:28:06.511Z,1002.17
2017-12-09T00:28:45.761Z,1002.19
2017-12-09T00:29:46.190Z,1002.10
2017-12-09T00:30:46.597Z,1002.09
2017-12-09T00:31:47.019Z,1002.06
2017-12-09T00:32:47.441Z,1002.04
2017-12-09T00:34:09.010Z,1002.10
2017-12-09T00:34:48.281Z,1002.10
2017-12-09T00:35:48.705Z,1002.15
2017-12-09T00:36:49.126Z,1002.04
2017-12-09T00:37:49.541Z,1002.02
2017-12-09T00:38:49.957Z,1001.99
2017-12-09T00:40:11.527Z,1002.00
2017-12-09T00:40:50.795Z,1001.94
2017-12-09T00:41:51.211Z,1001.93
2017-12-09T00:42:51.627Z,1001.96
2017-12-09T00:43:52.052Z,1002.00
2017-12-09T00:44:52.467Z,1001.97
2017-12-09T00:46:14.038Z,1001.98
2017-12-09T00:46:53.304Z,1001.95
2017-12-09T00:47:53.723Z,1001.94
2017-12-09T00:48:54.136Z,1001.92
2017-12-09T00:49:54.568Z,1001.89
2017-12-09T00:50:54.984Z,1001.94
2017-12-09T00:52:16.563Z,1001.90
2017-12-09T00:52:55.819Z,1001.89
2017-12-09T00:53:56.243Z,1001.89
2017-12-09T00:54:56.659Z,1001.85
2017-12-09T00:55:57.071Z,1001.82
2017-12-09T00:56:57.493Z,1001.82
2017-12-09T00:58:19.072Z,1001.79
2017-12-09T00:58:58.335Z,1001.78
2017-12-09T00:59:58.748Z,1001.80
2017-12-09T01:00:59.182Z,1001.81
2017-12-09T01:01:59.589Z,1001.83
2017-12-09T01:03:00.015Z,1001.81
2017-12-09T01:04:21.654Z,1001.81
2017-12-09T01:05:00.848Z,1001.84
2017-12-09T01:06:01.269Z,1001.83
2017-12-09T01:07:01.686Z,1001.87
2017-12-09T01:08:02.111Z,1001.83
2017-12-09T01:09:02.517Z,1001.85
2017-12-09T01:10:24.095Z,1001.87
2017-12-09T01:11:03.357Z,1001.87
2017-12-09T01:12:03.772Z,1001.84
2017-12-09T01:13:04.190Z,1001.88
2017-12-09T01:14:04.608Z,1001.88
2017-12-09T01:15:05.039Z,1001.93
2017-12-09T01:16:26.606Z,1001.88
2017-12-09T01:17:05.871Z,1001.90
2017-12-09T01:18:06.289Z,1001.93
2017-12-09T01:19:06.703Z,1001.93
2017-12-09T01:20:07.124Z,1001.99
2017-12-09T01:21:07.548Z,1001.98
2017-12-09T01:22:29.120Z,1001.92
2017-12-09T01:23:08.378Z,1001.94
2017-12-09T01:24:08.797Z,1001.94
2017-12-09T01:25:09.216Z,1001.97
2017-12-09T01:26:09.684Z,1001.93
2017-12-09T01:27:10.059Z,1001.93
2017-12-09T01:28:31.628Z,1001.93
2017-12-09T01:29:10.891Z,1001.93
2017-12-09T01:30:11.314Z,1001.88
2017-12-09T01:31:11.736Z,1001.84
2017-12-09T01:32:12.150Z,1001.90
2017-12-09T01:33:12.574Z,1001.97
2017-12-09T01:34:34.146Z,1001.90
2017-12-09T01:35:13.404Z,1001.91
2017-12-09T01:36:13.819Z,1001.88
2017-12-09T01:37:14.246Z,1001.93
2017-12-09T01:38:14.654Z,1001.94
2017-12-09T01:39:15.081Z,1001.95
2017-12-09T01:40:36.652Z,1001.97
2017-12-09T01:41:15.924Z,1002.03
2017-12-09T01:42:16.334Z,1002.00
2017-12-09T01:43:16.755Z,1001.97
2017-12-09T01:44:17.170Z,1001.99
2017-12-09T01:45:17.591Z,1001.95
2017-12-09T01:46:39.169Z,1001.93
2017-12-09T01:47:18.424Z,1001.89
2017-12-09T01:48:18.839Z,1001.92
2017-12-09T01:49:19.263Z,1001.96
2017-12-09T01:50:19.684Z,1001.88
2017-12-09T01:51:20.121Z,1001.94
2017-12-09T01:52:41.673Z,1001.89
2017-12-09T01:53:20.938Z,1001.91
2017-12-09T01:54:21.366Z,1001.84
2017-12-09T01:55:21.774Z,1001.85
2017-12-09T01:56:22.199Z,1001.84
2017-12-09T01:57:22.614Z,1001.90
2017-12-09T01:58:44.181Z,1001.78
2017-12-09T01:59:23.454Z,1001.86
2017-12-09T02:00:23.867Z,1001.85
2017-12-09T02:01:24.291Z,1001.85
2017-12-09T02:02:24.701Z,1001.90
2017-12-09T02:03:25.123Z,1001.88
2017-12-09T02:04:46.711Z,1001.81
2017-12-09T02:05:25.957Z,1001.89
2017-12-09T02:06:26.376Z,1001.89
2017-12-09T02:07:26.807Z,1001.87
2017-12-09T02:08:27.216Z,1001.89
2017-12-09T02:09:27.632Z,1001.87
2017-12-09T02:10:49.206Z,1001.86
2017-12-09T02:11:28.481Z,1001.82
2017-12-09T02:12:28.891Z,1001.81
2017-12-09T02:13:29.309Z,1001.82
2017-12-09T02:14:29.750Z,1001.85
2017-12-09T02:15:30.149Z,1001.84
2017-12-09T02:16:51.727Z,1001.80
2017-12-09T02:17:30.988Z,1001.79
2017-12-09T02:18:31.393Z,1001.76
2017-12-09T02:19:31.815Z,1001.80
2017-12-09T02:20:32.229Z,1001.73
2017-12-09T02:21:32.651Z,1001.63
2017-12-09T02:22:54.232Z,1001.69
2017-12-09T02:23:33.500Z,1001.63
2017-12-09T02:24:33.911Z,1001.62
2017-12-09T02:25:34.320Z,1001.64
2017-12-09T02:26:34.746Z,1001.67
2017-12-09T02:27:35.164Z,1001.60
2017-12-09T02:28:56.751Z,1001.64
2017-12-09T02:29:35.996Z,1001.57
2017-12-09T02:30:36.414Z,1001.63
2017-12-09T02:31:36.840Z,1001.60
2017-12-09T02:32:37.262Z,1001.58
2017-12-09T02:33:37.677Z,1001.58
2017-12-09T02:34:59.256Z,1001.57
2017-12-09T02:35:38.518Z,1001.55
2017-12-09T02:36:38.931Z,1001.61
2017-12-09T02:37:39.351Z,1001.59
2017-12-09T02:38:39.762Z,1001.62
2017-12-09T02:39:40.186Z,1001.62
2017-12-09T02:41:01.794Z,1001.56
2017-12-09T02:41:41.022Z,1001.52
2017-12-09T02:42:41.443Z,1001.57
2017-12-09T02:43:41.853Z,1001.56
2017-12-09T02:44:42.281Z,1001.54
2017-12-09T02:45:42.698Z,1001.58
2017-12-09T02:47:04.265Z,1001.58
2017-12-09T02:47:43.538Z,1001.54
2017-12-09T02:48:43.960Z,1001.50
2017-12-09T02:49:44.368Z,1001.50
2017-12-09T02:50:44.792Z,1001.54
2017-12-09T02:51:45.204Z,1001.53
2017-12-09T02:53:06.776Z,1001.47
2017-12-09T02:53:46.046Z,1001.48
2017-12-09T02:54:46.468Z,1001.52
2017-12-09T02:55:46.879Z,1001.49
2017-12-09T02:56:47.296Z,1001.54
2017-12-09T02:57:47.735Z,1001.53
2017-12-09T02:59:09.294Z,1001.50
2017-12-09T02:59:48.556Z,1001.51
2017-12-09T03:00:48.972Z,1001.56
2017-12-09T03:01:49.396Z,1001.55
2017-12-09T03:02:49.821Z,1001.52
2017-12-09T03:03:50.232Z,1001.54
2017-12-09T03:05:11.801Z,1001.51
2017-12-09T03:05:51.064Z,1001.49
2017-12-09T03:06:51.484Z,1001.48
2017-12-09T03:07:51.899Z,1001.48
2017-12-09T03:08:52.315Z,1001.44
2017-12-09T03:09:52.931Z,1001.48
2017-12-09T03:11:14.320Z,1001.43
2017-12-09T03:11:53.578Z,1001.50
2017-12-09T03:12:54.008Z,1001.54
2017-12-09T03:13:54.425Z,1001.55
2017-12-09T03:14:54.833Z,1001.55
2017-12-09T03:15:55.250Z,1001.49
2017-12-09T03:17:16.830Z,1001.50
2017-12-09T03:17:56.082Z,1001.51
2017-12-09T03:18:56.502Z,1001.52
2017-12-09T03:19:56.924Z,1001.54
2017-12-09T03:20:57.339Z,1001.50
2017-12-09T03:21:57.757Z,1001.52
2017-12-09T03:23:19.334Z,1001.48
2017-12-09T03:23:58.608Z,1001.48
2017-12-09T03:24:59.020Z,1001.53
2017-12-09T03:25:59.439Z,1001.52
2017-12-09T03:26:59.858Z,1001.56
2017-12-09T03:28:00.278Z,1001.56
2017-12-09T03:29:21.842Z,1001.59
2017-12-09T03:30:01.117Z,1001.63
2017-12-09T03:31:01.530Z,1001.61
2017-12-09T03:32:01.960Z,1001.59
2017-12-09T03:33:02.374Z,1001.58
2017-12-09T03:34:02.787Z,1001.58
2017-12-09T03:35:24.373Z,1001.57
2017-12-09T03:36:03.633Z,1001.58
2017-12-09T03:37:04.050Z,1001.57
2017-12-09T03:38:04.462Z,1001.58
2017-12-09T03:39:04.878Z,1001.55
2017-12-09T03:40:05.300Z,1001.54
2017-12-09T03:41:26.865Z,1001.59
2017-12-09T03:42:06.144Z,1001.60
2017-12-09T03:43:06.563Z,1001.57
2017-12-09T03:44:06.978Z,1001.58
2017-12-09T03:45:07.398Z,1001.62
2017-12-09T03:46:07.814Z,1001.55
2017-12-09T03:47:29.393Z,1001.55
2017-12-09T03:48:08.647Z,1001.48
2017-12-09T03:49:09.064Z,1001.53
2017-12-09T03:50:09.496Z,1001.50
2017-12-09T03:51:09.906Z,1001.51
2017-12-09T03:52:10.342Z,1001.47
2017-12-09T03:53:31.895Z,1001.52
2017-12-09T03:54:11.164Z,1001.49
2017-12-09T03:55:11.584Z,1001.50
2017-12-09T03:56:12.007Z,1001.48
2017-12-09T03:57:12.417Z,1001.46
2017-12-09T03:58:12.840Z,1001.53
2017-12-09T03:59:34.417Z,1001.54
2017-12-09T04:00:13.670Z,1001.59
2017-12-09T04:01:14.094Z,1001.55
2017-12-09T04:02:14.510Z,1001.64
2017-12-09T04:03:14.935Z,1001.61
2017-12-09T04:04:15.347Z,1001.61
2017-12-09T04:05:36.929Z,1001.58
2017-12-09T04:06:16.193Z,1001.54
2017-12-09T04:07:16.600Z,1001.55
2017-12-09T04:08:17.043Z,1001.58
2017-12-09T04:09:17.458Z,1001.54
2017-12-09T04:10:17.875Z,1001.61
2017-12-09T04:11:39.453Z,1001.63
2017-12-09T04:12:18.705Z,1001.63
2017-12-09T04:13:19.121Z,1001.56
2017-12-09T04:14:19.538Z,1001.64
2017-12-09T04:15:19.958Z,1001.58
2017-12-09T04:16:20.379Z,1001.59
2017-12-09T04:17:41.961Z,1001.62
2017-12-09T04:18:21.220Z,1001.60
2017-12-09T04:19:21.630Z,1001.61
2017-12-09T04:20:22.081Z,1001.58
2017-12-09T04:21:22.466Z,1001.56
2017-12-09T04:22:22.911Z,1001.60
2017-12-09T04:23:44.460Z,1001.57
2017-12-09T04:24:23.733Z,1001.57
2017-12-09T04:25:24.145Z,1001.58
2017-12-09T04:26:24.567Z,1001.53
2017-12-09T04:27:24.986Z,1001.53
2017-12-09T04:28:25.406Z,1001.48
2017-12-09T04:29:46.995Z,1001.45
2017-12-09T04:30:26.233Z,1001.50
2017-12-09T04:31:26.653Z,1001.50
2017-12-09T04:32:27.073Z,1001.47
2017-12-09T04:33:27.494Z,1001.44
2017-12-09T04:34:27.920Z,1001.42
2017-12-09T04:35:49.490Z,1001.36
2017-12-09T04:36:28.766Z,1001.35
2017-12-09T04:37:29.175Z,1001.36
2017-12-09T04:38:29.586Z,1001.36
2017-12-09T04:39:30.009Z,1001.39
2017-12-09T04:40:30.507Z,1001.41
2017-12-09T04:41:52.026Z,1001.37
2017-12-09T04:42:31.322Z,1001.35
2017-12-09T04:43:31.758Z,1001.36
2017-12-09T04:44:32.179Z,1001.38
2017-12-09T04:45:32.620Z,1001.36
2017-12-09T04:46:33.031Z,1001.37
2017-12-09T04:47:54.588Z,1001.31
2017-12-09T04:48:33.832Z,1001.35
2017-12-09T04:49:34.251Z,1001.36
2017-12-09T04:50:34.674Z,1001.30
2017-12-09T04:51:35.103Z,1001.34
2017-12-09T04:52:35.489Z,1001.31
2017-12-09T04:53:57.038Z,1001.34
2017-12-09T04:54:36.321Z,1001.37
2017-12-09T04:55:36.750Z,1001.37
2017-12-09T04:56:37.168Z,1001.41
2017-12-09T04:57:37.584Z,1001.46
2017-12-09T04:58:37.998Z,1001.40
2017-12-09T04:59:59.575Z,1001.42
2017-12-09T05:00:38.843Z,1001.39
2017-12-09T05:01:39.247Z,1001.41
2017-12-09T05:02:39.671Z,1001.38
2017-12-09T05:03:40.109Z,1001.39
2017-12-09T05:04:40.505Z,1001.40
2017-12-09T05:06:02.604Z,1001.46
2017-12-09T05:06:41.323Z,1001.43
2017-12-09T05:07:41.779Z,1001.39
2017-12-09T05:08:42.196Z,1001.41
2017-12-09T05:09:42.621Z,1001.38
2017-12-09T05:10:43.028Z,1001.36
2017-12-09T05:12:04.611Z,1001.39
2017-12-09T05:12:43.891Z,1001.31
2017-12-09T05:13:44.261Z,1001.30
2017-12-09T05:14:44.718Z,1001.23
2017-12-09T05:15:45.148Z,1001.22
2017-12-09T05:16:45.560Z,1001.30
2017-12-09T05:18:07.124Z,1001.24
2017-12-09T05:18:46.398Z,1001.28
2017-12-09T05:19:46.807Z,1001.28
2017-12-09T05:20:47.220Z,1001.27
2017-12-09T05:21:47.620Z,1001.31
2017-12-09T05:22:48.039Z,1001.32
2017-12-09T05:24:09.632Z,1001.32
2017-12-09T05:24:48.888Z,1001.35
2017-12-09T05:25:49.302Z,1001.38
2017-12-09T05:26:49.723Z,1001.36
2017-12-09T05:27:50.149Z,1001.46
2017-12-09T05:28:50.619Z,1001.45
2017-12-09T05:30:12.132Z,1001.41
2017-12-09T05:30:51.400Z,1001.47
2017-12-09T05:31:51.832Z,1001.50
2017-12-09T05:32:52.245Z,1001.38
2017-12-09T05:33:52.703Z,1001.47
2017-12-09T05:34:53.089Z,1001.43
2017-12-09T05:36:14.685Z,1001.37
2017-12-09T05:36:53.927Z,1001.41
2017-12-09T05:37:54.353Z,1001.42
2017-12-09T05:38:54.742Z,1001.44
2017-12-09T05:39:55.178Z,1001.42
2017-12-09T05:40:55.580Z,1001.44
2017-12-09T05:42:17.183Z,1001.42
2017-12-09T05:42:56.444Z,1001.47
2017-12-09T05:43:56.838Z,1001.50
2017-12-09T05:44:57.257Z,1001.46
2017-12-09T05:45:57.671Z,1001.43
2017-12-09T05:46:58.097Z,1001.42
2017-12-09T05:48:19.692Z,1001.35
2017-12-09T05:48:58.941Z,1001.35
2017-12-09T05:49:59.348Z,1001.31
2017-12-09T05:50:59.824Z,1001.35
2017-12-09T05:52:00.209Z,1001.34
2017-12-09T05:53:00.648Z,1001.39
2017-12-09T05:54:22.213Z,1001.44
2017-12-09T05:55:01.462Z,1001.45
2017-12-09T05:56:01.878Z,1001.46
2017-12-09T05:57:02.306Z,1001.47
2017-12-09T05:58:02.698Z,1001.47
2017-12-09T05:59:03.115Z,1001.43
2017-12-09T06:00:24.703Z,1001.43
2017-12-09T06:01:03.960Z,1001.43
2017-12-09T06:02:04.382Z,1001.46
2017-12-09T06:03:04.802Z,1001.40
2017-12-09T06:04:05.209Z,1001.42
2017-12-09T06:05:05.630Z,1001.40
2017-12-09T06:06:27.207Z,1001.39
2017-12-09T06:07:06.483Z,1001.38
2017-12-09T06:08:06.894Z,1001.38
2017-12-09T06:09:07.317Z,1001.35
2017-12-09T06:10:07.747Z,1001.31
2017-12-09T06:11:08.154Z,1001.33
2017-12-09T06:12:29.735Z,1001.26
2017-12-09T06:13:09.000Z,1001.33
2017-12-09T06:14:09.417Z,1001.28
2017-12-09T06:15:09.832Z,1001.24
2017-12-09T06:16:10.246Z,1001.25
2017-12-09T06:17:10.664Z,1001.23
2017-12-09T06:18:32.245Z,1001.24
2017-12-09T06:19:11.499Z,1001.22
2017-12-09T06:20:11.930Z,1001.16
2017-12-09T06:21:12.361Z,1001.22
2017-12-09T06:22:12.773Z,1001.24
2017-12-09T06:23:13.191Z,1001.24
2017-12-09T06:24:34.773Z,1001.28
2017-12-09T06:25:14.031Z,1001.32
2017-12-09T06:26:14.449Z,1001.29
2017-12-09T06:27:14.868Z,1001.29
2017-12-09T06:28:15.282Z,1001.29
2017-12-09T06:29:15.697Z,1001.29
2017-12-09T06:30:37.281Z,1001.26
2017-12-09T06:31:16.566Z,1001.26
2017-12-09T06:32:16.963Z,1001.24
2017-12-09T06:33:17.378Z,1001.22
2017-12-09T06:34:17.812Z,1001.25
2017-12-09T06:35:18.263Z,1001.17
2017-12-09T06:36:39.791Z,1001.18
2017-12-09T06:37:19.060Z,1001.22
2017-12-09T06:38:19.470Z,1001.18
2017-12-09T06:39:19.887Z,1001.19
2017-12-09T06:40:20.308Z,1001.12
2017-12-09T06:41:20.728Z,1001.14
2017-12-09T06:42:42.306Z,1001.17
2017-12-09T06:43:21.559Z,1001.18
2017-12-09T06:44:21.984Z,1001.20
2017-12-09T06:45:22.407Z,1001.18
2017-12-09T06:46:22.835Z,1001.13
2017-12-09T06:47:23.258Z,1001.12
2017-12-09T06:48:44.827Z,1001.09
2017-12-09T06:49:24.084Z,1001.09
2017-12-09T06:50:24.512Z,1001.10
2017-12-09T06:51:24.932Z,1001.10
2017-12-09T06:52:25.341Z,1001.07
2017-12-09T06:53:25.760Z,1001.03
2017-12-09T06:54:47.361Z,1001.09
2017-12-09T06:55:26.614Z,1001.10
2017-12-09T06:56:27.020Z,1001.04
2017-12-09T06:57:27.444Z,1001.08
2017-12-09T06:58:27.854Z,1001.09
2017-12-09T06:59:28.272Z,1001.11
2017-12-09T07:00:49.870Z,1001.09
2017-12-09T07:01:29.119Z,1001.08
2017-12-09T07:02:29.535Z,1001.10
2017-12-09T07:03:29.967Z,1001.09
2017-12-09T07:04:30.373Z,1001.10
2017-12-09T07:05:30.784Z,1001.11
2017-12-09T07:06:52.361Z,1001.07
2017-12-09T07:07:31.626Z,1001.07
2017-12-09T07:08:32.055Z,1001.09
2017-12-09T07:09:32.465Z,1001.06
2017-12-09T07:10:32.889Z,1001.09
2017-12-09T07:11:33.308Z,1001.11
2017-12-09T07:12:54.876Z,1001.05
2017-12-09T07:13:34.142Z,1001.06
2017-12-09T07:14:34.555Z,1001.04
2017-12-09T07:15:34.976Z,1001.01
2017-12-09T07:16:35.397Z,1000.99
2017-12-09T07:17:35.821Z,1001.02
2017-12-09T07:18:57.398Z,1001.02
2017-12-09T07:19:36.674Z,1000.98
2017-12-09T07:20:37.078Z,1000.96
2017-12-09T07:21:37.492Z,1001.01
2017-12-09T07:22:37.924Z,1001.01
2017-12-09T07:23:38.336Z,1001.04
2017-12-09T07:24:59.961Z,1001.03
2017-12-09T07:25:39.191Z,1001.06
2017-12-09T07:26:39.586Z,1001.00
2017-12-09T07:27:40.015Z,1000.98
2017-12-09T07:28:40.435Z,1001.09
2017-12-09T07:29:40.843Z,1001.04
2017-12-09T07:31:02.430Z,1001.02
2017-12-09T07:31:41.684Z,1001.00
2017-12-09T07:32:42.095Z,1001.01
2017-12-09T07:33:42.521Z,1000.98
2017-12-09T07:34:42.939Z,1000.93
2017-12-09T07:35:43.369Z,1000.95
2017-12-09T07:37:04.925Z,1000.99
2017-12-09T07:37:44.197Z,1000.98
2017-12-09T07:38:44.619Z,1001.03
2017-12-09T07:39:45.034Z,1001.03
2017-12-09T07:40:45.474Z,1000.99
2017-12-09T07:41:45.878Z,1001.04
2017-12-09T07:43:07.446Z,1001.04
2017-12-09T07:43:46.707Z,1001.03
2017-12-09T07:44:47.138Z,1001.03
2017-12-09T07:45:47.546Z,1000.99
2017-12-09T07:46:47.974Z,1001.05
2017-12-09T07:47:48.392Z,1001.01
2017-12-09T07:49:09.959Z,1001.08
2017-12-09T07:49:49.228Z,1001.10
2017-12-09T07:50:49.637Z,1001.12
2017-12-09T07:51:50.054Z,1001.14
2017-12-09T07:52:50.474Z,1001.17
2017-12-09T07:53:50.892Z,1001.15
2017-12-09T07:55:12.474Z,1001.13
2017-12-09T07:55:51.742Z,1001.14
2017-12-09T07:56:52.155Z,1001.14
2017-12-09T07:57:52.568Z,1001.16
2017-12-09T07:58:52.993Z,1001.11
2017-12-09T07:59:53.467Z,1001.07
2017-12-09T08:01:14.995Z,1001.02
2017-12-09T08:01:54.246Z,1000.99
2017-12-09T08:02:54.665Z,1001.01
2017-12-09T08:03:55.117Z,1000.98
2017-12-09T08:04:55.505Z,1001.02
2017-12-09T08:05:55.917Z,1001.01
2017-12-09T08:07:17.497Z,1001.03
2017-12-09T08:07:56.755Z,1000.97
2017-12-09T08:08:57.177Z,1000.98
2017-12-09T08:09:57.621Z,1000.96
2017-12-09T08:10:58.063Z,1000.95
2017-12-09T08:11:58.440Z,1000.98
2017-12-09T08:13:20.114Z,1001.00
2017-12-09T08:13:59.273Z,1000.98
2017-12-09T08:14:59.691Z,1001.00
2017-12-09T08:16:00.110Z,1000.99
2017-12-09T08:17:00.537Z,1001.02
2017-12-09T08:18:00.981Z,1001.07
2017-12-09T08:19:22.532Z,1000.97
2017-12-09T08:20:01.785Z,1000.90
2017-12-09T08:21:02.197Z,1001.04
2017-12-09T08:22:02.649Z,1001.02
2017-12-09T08:23:03.031Z,1000.99
2017-12-09T08:24:03.473Z,1000.97
2017-12-09T08:25:25.025Z,1000.99
2017-12-09T08:26:04.309Z,1001.02
2017-12-09T08:27:04.730Z,1000.97
2017-12-09T08:28:05.138Z,1001.03
2017-12-09T08:29:05.560Z,1001.01
2017-12-09T08:30:05.978Z,1001.04
2017-12-09T08:31:27.543Z,1000.97
2017-12-09T08:32:06.807Z,1001.06
2017-12-09T08:33:07.225Z,1001.06
2017-12-09T08:34:07.644Z,1001.10
2017-12-09T08:35:08.069Z,1001.06
2017-12-09T08:36:08.478Z,1001.10
2017-12-09T08:37:30.054Z,1001.06
2017-12-09T08:38:09.323Z,1001.00
2017-12-09T08:39:09.743Z,1001.02
2017-12-09T08:40:10.158Z,1001.04
2017-12-09T08:41:10.672Z,1001.03
2017-12-09T08:42:11.003Z,1000.98
2017-12-09T08:43:32.577Z,1000.95
2017-12-09T08:44:11.837Z,1000.94
2017-12-09T08:45:12.260Z,1000.94
2017-12-09T08:46:12.685Z,1001.01
2017-12-09T08:47:13.088Z,1000.94
2017-12-09T08:48:13.511Z,1000.99
2017-12-09T08:49:35.088Z,1000.96
2017-12-09T08:50:14.345Z,1001.00
2017-12-09T08:51:14.763Z,1000.99
2017-12-09T08:52:15.195Z,1001.00
2017-12-09T08:53:15.620Z,1000.99
2017-12-09T08:54:16.029Z,1000.94
2017-12-09T08:55:37.596Z,1000.92
2017-12-09T08:56:16.861Z,1000.93
2017-12-09T08:57:17.289Z,1000.96
2017-12-09T08:58:17.703Z,1000.93
2017-12-09T08:59:18.119Z,1000.93
2017-12-09T09:00:18.534Z,1001.02
2017-12-09T09:01:40.116Z,1001.01
2017-12-09T09:02:19.374Z,1001.01
2017-12-09T09:03:19.831Z,1000.98
2017-12-09T09:04:20.213Z,1000.98
2017-12-09T09:05:20.624Z,1001.00
2017-12-09T09:06:21.076Z,1001.01
2017-12-09T09:07:42.641Z,1001.01
2017-12-09T09:08:21.971Z,1001.03
2017-12-09T09:09:22.331Z,1000.99
2017-12-09T09:10:22.736Z,1001.00
2017-12-09T09:11:23.145Z,1001.00
2017-12-09T09:12:23.581Z,1001.00
2017-12-09T09:13:45.156Z,1000.95
2017-12-09T09:14:24.409Z,1001.01
2017-12-09T09:15:24.827Z,1001.08
2017-12-09T09:16:25.248Z,1001.03
2017-12-09T09:17:25.792Z,1001.00
2017-12-09T09:18:26.081Z,1001.01
2017-12-09T09:19:47.667Z,1001.04
2017-12-09T09:20:26.924Z,1001.01
2017-12-09T09:21:27.336Z,1000.95
2017-12-09T09:22:27.767Z,1001.00
2017-12-09T09:23:28.216Z,1000.95
2017-12-09T09:24:28.595Z,1000.96
2017-12-09T09:25:50.185Z,1000.92
2017-12-09T09:26:29.445Z,1000.89
2017-12-09T09:27:29.864Z,1000.91
2017-12-09T09:28:30.274Z,1000.96
2017-12-09T09:29:30.692Z,1000.90
2017-12-09T09:30:31.113Z,1000.85
2017-12-09T09:31:52.687Z,1000.87
2017-12-09T09:32:31.955Z,1000.80
2017-12-09T09:33:32.379Z,1000.87
2017-12-09T09:34:32.801Z,1000.83
2017-12-09T09:35:33.212Z,1000.77
2017-12-09T09:36:33.646Z,1000.79
2017-12-09T09:37:55.198Z,1000.75
2017-12-09T09:38:34.475Z,1000.73
2017-12-09T09:39:34.889Z,1000.70
2017-12-09T09:40:35.299Z,1000.73
2017-12-09T09:41:35.716Z,1000.70
2017-12-09T09:42:36.146Z,1000.63
2017-12-09T09:43:57.723Z,1000.60
2017-12-09T09:44:36.988Z,1000.62
2017-12-09T09:45:37.396Z,1000.58
2017-12-09T09:46:37.820Z,1000.64
2017-12-09T09:47:38.234Z,1000.62
2017-12-09T09:48:38.665Z,1000.64
2017-12-09T09:50:00.237Z,1000.62
2017-12-09T09:50:39.497Z,1000.63
2017-12-09T09:51:39.916Z,1000.56
2017-12-09T09:52:41.255Z,1000.62
2017-12-09T09:53:40.749Z,1000.60
2017-12-09T09:54:41.170Z,1000.61
2017-12-09T09:56:02.784Z,1000.62
2017-12-09T09:56:42.006Z,1000.68
2017-12-09T09:57:42.432Z,1000.71
2017-12-09T09:58:42.850Z,1000.65
2017-12-09T09:59:43.259Z,1000.61
2017-12-09T10:00:43.684Z,1000.66
2017-12-09T10:02:06.138Z,1000.63
2017-12-09T10:02:44.523Z,1000.65
2017-12-09T10:03:44.940Z,1000.66
2017-12-09T10:04:45.363Z,1000.66
2017-12-09T10:05:45.780Z,1000.62
2017-12-09T10:06:46.195Z,1000.63
2017-12-09T10:08:07.780Z,1000.61
2017-12-09T10:08:47.034Z,1000.62
2017-12-09T10:09:47.457Z,1000.61
2017-12-09T10:10:47.918Z,1000.62
2017-12-09T10:11:48.305Z,1000.59
2017-12-09T10:12:48.711Z,1000.60
2017-12-09T10:14:10.286Z,1000.58
2017-12-09T10:14:49.570Z,1000.52
2017-12-09T10:15:49.992Z,1000.54
2017-12-09T10:16:50.407Z,1000.52
2017-12-09T10:17:50.843Z,1000.45
2017-12-09T10:18:51.244Z,1000.48
2017-12-09T10:20:12.814Z,1000.49
2017-12-09T10:20:52.070Z,1000.49
2017-12-09T10:21:52.488Z,1000.46
2017-12-09T10:22:52.914Z,1000.49
2017-12-09T10:23:53.324Z,1000.52
2017-12-09T10:24:53.739Z,1000.52
2017-12-09T10:26:15.322Z,1000.54
2017-12-09T10:26:54.592Z,1000.49
2017-12-09T10:27:55.017Z,1000.46
2017-12-09T10:28:55.430Z,1000.51
2017-12-09T10:29:55.844Z,1000.48
2017-12-09T10:30:56.270Z,1000.50
2017-12-09T10:32:17.836Z,1000.54
2017-12-09T10:32:57.097Z,1000.53
2017-12-09T10:33:57.515Z,1000.51
2017-12-09T10:34:57.933Z,1000.47
2017-12-09T10:35:58.367Z,1000.44
2017-12-09T10:36:58.768Z,1000.46
2017-12-09T10:38:21.267Z,1000.46
2017-12-09T10:38:59.609Z,1000.45
2017-12-09T10:40:00.033Z,1000.41
2017-12-09T10:41:00.467Z,1000.40
2017-12-09T10:42:00.902Z,1000.40
2017-12-09T10:43:01.298Z,1000.41
2017-12-09T10:44:22.868Z,1000.39
2017-12-09T10:45:02.129Z,1000.41
2017-12-09T10:46:02.544Z,1000.45
2017-12-09T10:47:02.964Z,1000.45
2017-12-09T10:48:03.387Z,1000.42
2017-12-09T10:49:03.802Z,1000.35
2017-12-09T10:50:25.374Z,1000.36
2017-12-09T10:51:04.638Z,1000.34
2017-12-09T10:52:05.053Z,1000.33
2017-12-09T10:53:05.509Z,1000.33
2017-12-09T10:54:05.917Z,1000.33
2017-12-09T10:55:06.330Z,1000.26
2017-12-09T10:56:27.904Z,1000.33
2017-12-09T10:57:07.164Z,1000.37
2017-12-09T10:58:07.583Z,1000.36
2017-12-09T10:59:07.997Z,1000.37
2017-12-09T11:00:08.415Z,1000.39
2017-12-09T11:01:08.831Z,1000.37
2017-12-09T11:02:31.177Z,1000.37
2017-12-09T11:03:09.683Z,1000.38
2017-12-09T11:04:10.101Z,1000.32
2017-12-09T11:05:10.514Z,1000.39
2017-12-09T11:06:10.935Z,1000.34
2017-12-09T11:07:11.357Z,1000.30
2017-12-09T11:08:32.918Z,1000.36
2017-12-09T11:09:12.186Z,1000.31
2017-12-09T11:10:12.628Z,1000.30
2017-12-09T11:11:13.023Z,1000.30
2017-12-09T11:12:13.452Z,1000.30
2017-12-09T11:13:13.860Z,1000.27
2017-12-09T11:14:35.437Z,1000.29
2017-12-09T11:15:14.707Z,1000.38
2017-12-09T11:16:15.121Z,1000.34
2017-12-09T11:17:15.547Z,1000.35
2017-12-09T11:18:15.962Z,1000.43
2017-12-09T11:19:16.380Z,1000.42
2017-12-09T11:20:37.957Z,1000.44
2017-12-09T11:21:17.237Z,1000.46
2017-12-09T11:22:18.722Z,1000.45
2017-12-09T11:23:18.061Z,1000.43
2017-12-09T11:24:18.484Z,1000.41
2017-12-09T11:25:18.891Z,1000.45
2017-12-09T11:26:40.481Z,1000.45
2017-12-09T11:27:19.735Z,1000.44
2017-12-09T11:28:20.174Z,1000.47
2017-12-09T11:29:20.593Z,1000.38
2017-12-09T11:30:20.998Z,1000.45
2017-12-09T11:31:21.413Z,1000.48
2017-12-09T11:32:42.984Z,1000.46
2017-12-09T11:33:22.260Z,1000.47
2017-12-09T11:34:22.666Z,1000.49
2017-12-09T11:35:23.086Z,1000.50
2017-12-09T11:36:23.504Z,1000.56
2017-12-09T11:37:23.922Z,1000.46
2017-12-09T11:38:45.494Z,1000.55
2017-12-09T11:39:24.763Z,1000.58
2017-12-09T11:40:25.186Z,1000.52
2017-12-09T11:41:25.602Z,1000.54
2017-12-09T11:42:26.021Z,1000.53
2017-12-09T11:43:26.440Z,1000.58
2017-12-09T11:44:48.012Z,1000.57
2017-12-09T11:45:27.272Z,1000.53
2017-12-09T11:46:27.690Z,1000.55
2017-12-09T11:47:28.169Z,1000.50
2017-12-09T11:48:28.535Z,1000.56
2017-12-09T11:49:28.950Z,1000.60
2017-12-09T11:50:50.529Z,1000.63
2017-12-09T11:51:29.784Z,1000.63
2017-12-09T11:52:30.212Z,1000.69
2017-12-09T11:53:30.628Z,1000.70
2017-12-09T11:54:31.039Z,1000.74
2017-12-09T11:55:31.461Z,1000.77
2017-12-09T11:56:53.029Z,1000.71
2017-12-09T11:57:32.292Z,1000.71
2017-12-09T11:58:32.718Z,1000.68
2017-12-09T11:59:33.132Z,1000.72
2017-12-09T12:00:33.550Z,1000.73
2017-12-09T12:01:33.978Z,1000.69
2017-12-09T12:02:55.550Z,1000.80
2017-12-09T12:03:34.809Z,1000.76
2017-12-09T12:04:35.238Z,1000.73
2017-12-09T12:05:35.653Z,1000.62
2017-12-09T12:06:36.069Z,1000.66
2017-12-09T12:07:36.492Z,1000.62
2017-12-09T12:08:58.613Z,1000.62
2017-12-09T12:09:37.322Z,1000.63
2017-12-09T12:10:37.749Z,1000.68